Liberec, Czech Republic

3:55 PM CEST on August 01, 2015 (GMT +0200)
Novina | | Change Station
CLOSE
Current Station
Personal Weather Station
Location: Kryštofovo Údolí, LIBEREC REGION
Elevation: 1631 ft
Nearby Weather Stations

Elev 1631 ft 50.76 °N, 14.94 °E | Updated 20 seconds ago

Clear
Clear
79.5 °F
Feels Like 79 °F
N
6.0
Wind Variable Wind from West
Gusts 12.0 mph

Today
High -- | Low -- °F
--% Chance of Precip.
Yesterday
High -- | Low -- °F
Precip. -- in
5:25 AM 8:45 PM
Full, 98% visible
Pressure 29.98 in
Visibility -9999.0 miles
Clouds
Heat Index 79 °F
Dew Point 44 °F
Humidity 28%
Rainfall 0.00 in
Snow Depth Not available.
UV Not available.
Pollen Not available.
Air Quality Not available.
Flu Activity Not available.
METAR LKPR 011330Z 14003KT 090V210 CAVOK 26/05 Q1015 NOSIG

More Conditions Fewer Conditions

Pressure 29.98 in
Visibility -9999.0 miles
Clouds
Heat Index 79 °F
Dew Point 44 °F
Humidity 28%
Rainfall 0.00 in
Snow Depth Not available.
UV Not available.
Pollen Not available.
Air Quality Not available.
Flu Activity Not available.
METAR LKPR 011330Z 14003KT 090V210 CAVOK 26/05 Q1015 NOSIG

More Conditions Fewer Conditions

10-Day Weather Forecast

×

Almanac

Astronomy

Aug. 01, 2015 Rise Set
Actual Time
Civil Twilight
Nautical Twilight
Astronomical Twilight
Moon
Length of Visible Light
Length of Day
Tomorrow will be .
, % of the Moon is Illuminated

Today's Extremes

Country Highs Country Lows

Community

WunderPhotos

Upload Photos

1,842,940 photos uploaded!

WunderBlogs® & News

Nearby

Air Quality

  Air Quality AQ Index Pollutant
Not available.

Snow Depth

Station Depth Elevation

Earthquake Activity

City Distance Mag. Time & Date
Minimum magnitude displayed is 2.5.

Coastal Water Temperatures

Place Temperature

Stations

Nearby Weather Stations

Station Location Temp. Windchill Dew Point Humidity Wind Precip. Elev Updated Type